Flight Track Log - Related Links

Times and Time Zones

All times are in EST time to prevent confusion due to time zone crossing. See the SKW5550 flight status page for this flight to view local times or setup timezone preferences in your user account.


Time Position Orientation Groundspeed Altitude Reporting Facility
EST Latitude Longitude Course Direction KTS MPH feet Rate Location/Type
Wed 08:02:00 AM 44.0044 -108.5009 157° South  Level Estimated
Wed 08:03:00 AM 43.9182 -108.4146 156° South  Level Estimated
Wed 08:04:00 AM 43.8319 -108.3286 142° Southeast  Level Estimated
Wed 08:04:48 AM 44.5089 -109.0492 143° Southeast 152 175 6,000  Level Salt Lake Center
Wed 08:05:00 AM 43.7306 -108.2843 162° South  Level FlightAware Approximate
Wed 08:05:49 AM 44.4675 -109.0542 185° South 239 275 8,100  Level Salt Lake Center
Wed 08:06:00 AM 43.6335 -108.1867 144° Southeast  Level Estimated
Wed 08:06:49 AM 44.4939 -108.9850 62° Northeast 230 265 10,300  Level Salt Lake Center
Wed 08:07:00 AM 43.5364 -108.0894 142° Southeast  Level Estimated
Wed 08:07:49 AM 44.4411 -108.9067 133° Southeast 266 306 11,900  Level Salt Lake Center
Wed 08:08:00 AM 43.4254 -108.0260 157° South  Level FlightAware Approximate
Wed 08:08:50 AM 44.3636 -108.8381 148° Southeast 302 348 14,300  Level Salt Lake Center
Wed 08:09:00 AM 43.3286 -107.9285 144° Southeast  Level Estimated
Wed 08:09:50 AM 44.2817 -108.7578 145° Southeast 341 392 16,300  Level Salt Lake Center
Wed 08:10:00 AM 43.2316 -107.8313 143° Southeast  Level Estimated
Wed 08:10:50 AM 44.1953 -108.6764 146° Southeast 365 420 18,200  Level Salt Lake Center
Wed 08:11:50 AM 44.0872 -108.5758 146° Southeast 384 442 20,100 1,686 Climbing Salt Lake Center
Wed 08:12:51 AM 43.9942 -108.4878 146° Southeast 400 460 21,600 1,388 Climbing Salt Lake Center
Wed 08:13:51 AM 43.8983 -108.4003 147° Southeast 411 473 22,900 1,300 Climbing Salt Lake Center
Wed 08:14:51 AM 43.8017 -108.3108 146° Southeast 419 482 24,200 1,240 Climbing Salt Lake Center
Wed 08:15:52 AM 43.7025 -108.2192 146° Southeast 428 493 25,400 1,140 Climbing Salt Lake Center
Wed 08:16:52 AM 43.6014 -108.1275 147° Southeast 434 499 26,500 1,050 Climbing Salt Lake Center
Wed 08:17:52 AM 43.4997 -108.0339 146° Southeast 440 506 27,500 1,200 Climbing Salt Lake Center
Wed 08:18:52 AM 43.3978 -107.9397 146° Southeast 442 509 28,900 1,091 Climbing Salt Lake Center
Wed 08:19:53 AM 43.2953 -107.8486 147° Southeast 443 510 29,700 793 Climbing Salt Lake Center
Wed 08:20:53 AM 43.1906 -107.7533 146° Southeast 451 519 30,500 650 Climbing Salt Lake Center
Wed 08:21:53 AM 43.0853 -107.6589 147° Southeast 454 522 31,000 248 Climbing Salt Lake Center
Wed 08:22:54 AM 42.9764 -107.5611 147° Southeast 467 537 31,000  Level Salt Lake Center
Wed 08:23:54 AM 42.8736 -107.4683 147° Southeast 476 548 31,000  Level Salt Lake Center
Wed 08:24:54 AM 42.7500 -107.3608 147° Southeast 472 543 31,000  Level Salt Lake Center
Wed 08:25:54 AM 42.6458 -107.2672 147° Southeast 469 540 31,000  Level Salt Lake Center
Wed 08:26:55 AM 42.5414 -107.1750 147° Southeast 469 540 31,000  Level Salt Lake Center
Wed 08:27:55 AM 42.4200 -107.0633 146° Southeast 471 542 31,000  Level Salt Lake Center
Wed 08:28:55 AM 42.3147 -106.9947 154° Southeast 462 532 31,000  Level Salt Lake Center
Wed 08:29:56 AM 42.2117 -107.0175 189° South 396 456 31,000  Level Salt Lake Center
Wed 08:30:56 AM 42.1261 -107.0769 207° Southwest 365 420 31,000  Level Salt Lake Center
Wed 08:32:03 AM 42.0300 -107.1439 207° Southwest 352 405 31,000  Level Denver Center
Wed 08:33:03 AM 41.9236 -107.1700 190° South 380 437 31,000  Level Denver Center
Wed 08:34:04 AM 41.8400 -107.0708 139° Southeast 421 484 31,000  Level Denver Center
Wed 08:35:04 AM 41.7614 -106.9619 134° Southeast 427 491 31,000  Level Denver Center
Wed 08:36:05 AM 41.6644 -106.8336 135° Southeast 434 499 31,000  Level Denver Center
Wed 08:37:05 AM 41.5811 -106.7219 135° Southeast 442 509 31,000  Level Denver Center
Wed 08:38:06 AM 41.4969 -106.6111 135° Southeast 443 510 31,000  Level Denver Center
Wed 08:39:06 AM 41.4136 -106.4983 135° Southeast 444 511 31,000  Level Denver Center
Wed 08:40:07 AM 41.3161 -106.3708 135° Southeast 442 509 31,000  Level Denver Center
Wed 08:41:07 AM 41.2344 -106.2592 134° Southeast 442 509 31,000  Level Denver Center
Wed 08:42:08 AM 41.1497 -106.1506 136° Southeast 442 509 31,000  Level Denver Center
Wed 08:43:08 AM 41.0531 -106.0247 136° Southeast 438 504 31,000  Level Denver Center
Wed 08:44:09 AM 40.9678 -105.9114 135° Southeast 438 504 31,000 -893 Level Denver Center
Wed 08:45:09 AM 40.8786 -105.7986 136° Southeast 441 507 29,200 -2,132 Descending Denver Center
Wed 08:46:10 AM 40.7878 -105.6769 135° Southeast 461 531 26,700 -2,479 Descending Denver Center
Wed 08:47:10 AM 40.6989 -105.5622 136° Southeast 451 519 24,200 -2,430 Descending Denver Center
Wed 08:48:11 AM 40.6125 -105.4517 136° Southeast 439 505 21,800 -2,311 Descending Denver Center
Wed 08:49:12 AM 40.5433 -105.3300 127° Southeast 415 478 19,500 -1,884 Descending Denver Center
Wed 08:50:12 AM 40.4869 -105.2125 122° Southeast 386 444 18,000 -1,488 Descending Denver Center
Wed 08:51:13 AM 40.4508 -105.0889 111° Southeast 353 406 16,500 -1,388 Descending Denver Center
Wed 08:52:13 AM 40.4189 -104.9783 111° Southeast 326 375 15,200 -1,091 Descending Denver Center
Wed 08:53:14 AM 40.3900 -104.8786 111° Southeast 299 344 14,300 -1,140 Descending Denver Center
Wed 08:54:14 AM 40.3264 -104.8156 143° Southeast 293 337 12,900 -1,488 Descending Denver Center
Wed 08:55:15 AM 40.2542 -104.7544 147° Southeast 287 330 11,300 -1,426 Descending Denver Center
Wed 08:56:16 AM 40.1886 -104.7014 148° Southeast 279 321 10,000 -1,091 Descending Denver Center
Wed 08:57:16 AM 40.1186 -104.6836 169° South 254 292 9,100 -793 Descending Denver Center
Wed 08:58:17 AM 40.0542 -104.6850 181° South 232 267 8,400 -843 Descending Denver Center
Wed 08:59:17 AM 39.9942 -104.6861 181° South 219 252 7,400 -992 Descending Denver Center
Wed 09:00:18 AM 39.9453 -104.6856 180° South 172 198 6,400 -885 Descending Denver Center
Wed 09:01:19 AM 39.9050 -104.6867 181° South 145 167 5,600 -787 Descending Denver Center

Login

Don't have an account? Register now (free) for customized features, flight alerts, and more!